KAZO/AZO METAR and TAF weather

Enter ICAO airport designator
Station Type Date Time Source
KAZO METAR 2019/06/24 22:53 UTC NOAA

KAZO 242253Z 21004KT 10SM SCT017 BKN026 OVC031 22/20 A2963 RMK AO2 RAB26E47 SLP030 P0013 T02220200


Station Type Date Time Source
KAZO Decoded METAR 2019/06/24 22:53 UTC NOAA

KALAMAZOO/BATTLE CREEK AIRPORT, MI, United States (KAZO) 42-14N 085-33W 272M
Jun 24, 2019 - 06:53 PM EDT / 2019.06.24 2253 UTC
Wind: from the SSW (210 degrees) at 5 MPH (4 KT):0
Visibility: 10 mile(s):0
Sky conditions: overcast
Precipitation last hour: 0.13 inches
Temperature: 72.0 F (22.2 C)
Dew Point: 68.0 F (20.0 C)
Relative Humidity: 87%
Pressure (altimeter): 29.63 in. Hg (1003 hPa)
ob: KAZO 242253Z 21004KT 10SM SCT017 BKN026 OVC031 22/20 A2963 RMK AO2 RAB26E47 SLP030 P0013 T02220200
cycle: 23

Station Type Date Time Source
KAZO TAF 2019/06/24 23:42 UTC NOAA

TAF
AMD KAZO 242241Z 2423/2518 21010KT 1SM SHRA BR BKN035
FM242330 23006KT P6SM BKN025
FM250100 20012KT P6SM VCTS BKN025CB
FM250300 24012KT P6SM VCSH BKN040
FM250900 24010KT P6SM BKN025

Example: see airport list